Terminal Aerodrome Forecast
Issued by NWS Sterling, VA

Home | Current Version | Previous Version | Text Only | Print | Product List | Glossary On
Versions: 1 2 3 4 5 6 7 8 9 10 11 12 13 14
000
FTUS41 KLWX 011745
TAFCHO
TAF
KCHO 011745Z 0118/0218 25007KT P6SM BKN050
     FM012000 24008KT P6SM VCTS BKN050CB
     FM020000 VRB03KT P6SM SCT250
     FM021200 VRB03KT P6SM BKN050=

USA.gov is the U.S. government's official web portal to all federal, state and local government web resources and services.